TimeCST,TemperatureF,Dew PointF,Humidity,Sea Level PressureIn,VisibilityMPH,Wind Direction,Wind SpeedMPH,Gust SpeedMPH,PrecipitationIn,Events,Conditions,WindDirDegrees,DateUTC
12:53 AM,61.0,54.0,78,30.14,9.0,South,8.1,-,N/A,,Clear,180,2012-11-23 06:53:00
1:53 AM,59.0,53.1,81,30.15,9.0,South,6.9,-,N/A,,Clear,190,2012-11-23 07:53:00
2:53 AM,61.0,54.0,78,30.15,9.0,South,6.9,-,N/A,,Overcast,190,2012-11-23 08:53:00
3:53 AM,61.0,54.0,78,30.16,9.0,SSE,3.5,-,N/A,,Overcast,150,2012-11-23 09:53:00
4:53 AM,60.1,55.0,83,30.17,9.0,SSW,3.5,-,N/A,,Overcast,200,2012-11-23 10:53:00
6:16 AM,60.8,55.4,82,30.23,10.0,North,8.1,-,N/A,,Overcast,350,2012-11-23 12:16:00
6:53 AM,61.0,54.0,78,30.23,10.0,North,3.5,-,N/A,,Overcast,360,2012-11-23 12:53:00
7:53 AM,62.1,54.0,75,30.25,9.0,Calm,Calm,-,N/A,,Overcast,0,2012-11-23 13:53:00
8:15 AM,62.6,55.4,77,30.27,8.0,Calm,Calm,-,N/A,,Overcast,0,2012-11-23 14:15:00
8:53 AM,63.0,54.0,72,30.28,10.0,North,15.0,19.6,N/A,,Overcast,360,2012-11-23 14:53:00
9:25 AM,62.6,53.6,72,30.31,9.0,NNE,15.0,23.0,N/A,,Overcast,20,2012-11-23 15:25:00
9:53 AM,63.0,54.0,72,30.31,10.0,NNE,16.1,19.6,N/A,,Overcast,20,2012-11-23 15:53:00
10:53 AM,63.0,52.0,67,30.33,10.0,NNE,13.8,21.9,N/A,,Overcast,20,2012-11-23 16:53:00
11:53 AM,61.0,46.9,60,30.34,10.0,NNE,13.8,-,N/A,,Overcast,20,2012-11-23 17:53:00
12:53 PM,61.0,42.1,50,30.34,10.0,NNE,13.8,25.3,N/A,,Overcast,20,2012-11-23 18:53:00
1:07 PM,60.8,41.0,48,30.34,10.0,NNE,13.8,-,N/A,,Overcast,20,2012-11-23 19:07:00
1:53 PM,64.0,37.0,37,30.32,10.0,NNE,13.8,18.4,N/A,,Mostly Cloudy,30,2012-11-23 19:53:00
2:53 PM,66.9,30.0,25,30.32,10.0,NNE,10.4,-,N/A,,Mostly Cloudy,30,2012-11-23 20:53:00
3:53 PM,66.9,24.1,20,30.32,10.0,North,15.0,20.7,N/A,,Scattered Clouds,360,2012-11-23 21:53:00
4:53 PM,63.0,25.0,24,30.33,10.0,North,10.4,-,N/A,,Mostly Cloudy,360,2012-11-23 22:53:00
5:53 PM,59.0,24.1,26,30.35,10.0,North,11.5,-,N/A,,Partly Cloudy,360,2012-11-23 23:53:00
6:53 PM,55.9,21.9,27,30.37,10.0,North,8.1,-,N/A,,Clear,350,2012-11-24 00:53:00
7:53 PM,54.0,21.9,29,30.39,10.0,North,10.4,-,N/A,,Clear,360,2012-11-24 01:53:00
8:53 PM,51.1,23.0,33,30.40,10.0,North,8.1,-,N/A,,Clear,360,2012-11-24 02:53:00
9:53 PM,48.9,25.0,39,30.40,10.0,North,6.9,-,N/A,,Clear,360,2012-11-24 03:53:00
10:53 PM,46.9,24.1,41,30.40,10.0,North,8.1,-,N/A,,Clear,360,2012-11-24 04:53:00
11:53 PM,46.9,23.0,39,30.42,10.0,North,8.1,18.4,N/A,,Clear,10,2012-11-24 05:53:00